sensor_id;sensor_type;location;lat;lon;timestamp;pressure;altitude;pressure_sealevel;temperature;humidity
21129;BME280;10722;51.910;8.352;2023-03-18T00:01:13;100181.28;;;10.45;91.63
21129;BME280;10722;51.910;8.352;2023-03-18T00:03:59;100179.47;;;10.38;93.01
21129;BME280;10722;51.910;8.352;2023-03-18T00:06:45;100177.69;;;10.32;94.71
21129;BME280;10722;51.910;8.352;2023-03-18T00:09:30;100172.25;;;10.10;96.42
21129;BME280;10722;51.910;8.352;2023-03-18T00:12:15;100179.03;;;9.98;98.33
21129;BME280;10722;51.910;8.352;2023-03-18T00:15:00;100178.03;;;9.88;100.00
21129;BME280;10722;51.910;8.352;2023-03-18T00:17:46;100185.75;;;9.83;100.00
21129;BME280;10722;51.910;8.352;2023-03-18T00:20:31;100175.34;;;9.77;100.00
21129;BME280;10722;51.910;8.352;2023-03-18T00:23:17;100188.25;;;9.74;100.00
21129;BME280;10722;51.910;8.352;2023-03-18T00:26:03;100178.75;;;9.72;100.00
21129;BME280;10722;51.910;8.352;2023-03-18T00:28:48;100175.22;;;9.67;100.00
21129;BME280;10722;51.910;8.352;2023-03-18T00:31:33;100173.47;;;9.65;100.00
21129;BME280;10722;51.910;8.352;2023-03-18T00:34:19;100179.50;;;9.63;100.00
21129;BME280;10722;51.910;8.352;2023-03-18T00:37:05;100179.38;;;9.57;100.00
21129;BME280;10722;51.910;8.352;2023-03-18T00:39:50;100181.94;;;9.54;100.00
21129;BME280;10722;51.910;8.352;2023-03-18T00:42:38;100188.78;;;9.50;100.00
21129;BME280;10722;51.910;8.352;2023-03-18T00:45:24;100186.16;;;9.49;100.00
21129;BME280;10722;51.910;8.352;2023-03-18T00:48:09;100179.31;;;9.51;100.00
21129;BME280;10722;51.910;8.352;2023-03-18T00:50:55;100182.72;;;9.47;100.00
21129;BME280;10722;51.910;8.352;2023-03-18T00:53:43;100181.00;;;9.49;100.00
21129;BME280;10722;51.910;8.352;2023-03-18T00:56:30;100178.63;;;9.64;100.00
21129;BME280;10722;51.910;8.352;2023-03-18T00:59:16;100171.69;;;9.60;100.00
21129;BME280;10722;51.910;8.352;2023-03-18T01:02:01;100176.72;;;9.49;100.00
21129;BME280;10722;51.910;8.352;2023-03-18T01:04:47;100188.69;;;9.44;100.00
21129;BME280;10722;51.910;8.352;2023-03-18T01:07:32;100186.88;;;9.37;100.00
21129;BME280;10722;51.910;8.352;2023-03-18T01:10:18;100185.16;;;9.36;100.00
21129;BME280;10722;51.910;8.352;2023-03-18T01:13:03;100183.47;;;9.39;100.00
21129;BME280;10722;51.910;8.352;2023-03-18T01:15:49;100161.91;;;9.36;100.00
21129;BME280;10722;51.910;8.352;2023-03-18T01:18:35;100174.03;;;9.41;100.00
21129;BME280;10722;51.910;8.352;2023-03-18T01:21:20;100163.59;;;9.34;100.00
21129;BME280;10722;51.910;8.352;2023-03-18T01:24:06;100167.97;;;9.38;100.00
21129;BME280;10722;51.910;8.352;2023-03-18T01:26:51;100165.25;;;9.29;100.00
21129;BME280;10722;51.910;8.352;2023-03-18T01:29:37;100173.81;;;9.25;100.00
21129;BME280;10722;51.910;8.352;2023-03-18T01:32:22;100186.63;;;9.18;100.00
21129;BME280;10722;51.910;8.352;2023-03-18T01:35:07;100174.56;;;9.17;100.00
21129;BME280;10722;51.910;8.352;2023-03-18T01:37:53;100172.88;;;9.18;100.00
21129;BME280;10722;51.910;8.352;2023-03-18T01:40:38;100171.19;;;9.23;100.00
21129;BME280;10722;51.910;8.352;2023-03-18T01:43:27;100165.91;;;9.14;100.00
21129;BME280;10722;51.910;8.352;2023-03-18T01:46:35;100171.91;;;9.13;100.00
21129;BME280;10722;51.910;8.352;2023-03-18T01:49:24;100166.69;;;9.08;100.00
21129;BME280;10722;51.910;8.352;2023-03-18T01:52:25;100170.97;;;9.09;100.00
21129;BME280;10722;51.910;8.352;2023-03-18T01:55:15;100170.16;;;9.10;100.00
21129;BME280;10722;51.910;8.352;2023-03-18T01:58:05;100165.91;;;9.12;100.00
21129;BME280;10722;51.910;8.352;2023-03-18T02:01:19;100164.19;;;9.13;100.00
21129;BME280;10722;51.910;8.352;2023-03-18T02:04:07;100168.47;;;9.14;100.00
21129;BME280;10722;51.910;8.352;2023-03-18T02:06:53;100171.91;;;9.13;100.00
21129;BME280;10722;51.910;8.352;2023-03-18T02:09:38;100169.34;;;9.13;100.00
21129;BME280;10722;51.910;8.352;2023-03-18T02:12:27;100171.06;;;9.14;100.00
21129;BME280;10722;51.910;8.352;2023-03-18T02:15:16;100167.63;;;9.13;100.00
21129;BME280;10722;51.910;8.352;2023-03-18T02:18:09;100170.16;;;9.12;100.00
21129;BME280;10722;51.910;8.352;2023-03-18T02:27:26;100158.25;;;9.20;100.00
21129;BME280;10722;51.910;8.352;2023-03-18T02:30:16;100164.25;;;9.19;100.00
21129;BME280;10722;51.910;8.352;2023-03-18T02:33:02;100168.59;;;9.22;100.00
21129;BME280;10722;51.910;8.352;2023-03-18T02:35:54;100178.00;;;9.16;100.00
21129;BME280;10722;51.910;8.352;2023-03-18T02:38:42;100175.31;;;9.10;100.00
21129;BME280;10722;51.910;8.352;2023-03-18T02:41:30;100166.69;;;9.08;100.00
21129;BME280;10722;51.910;8.352;2023-03-18T02:44:17;100168.44;;;9.11;100.00
21129;BME280;10722;51.910;8.352;2023-03-18T02:47:08;100179.63;;;9.10;100.00
21129;BME280;10722;51.910;8.352;2023-03-18T02:49:55;100174.47;;;9.10;100.00
21129;BME280;10722;51.910;8.352;2023-03-18T02:52:41;100184.13;;;9.25;100.00
21129;BME280;10722;51.910;8.352;2023-03-18T02:55:26;100183.22;;;9.23;100.00
21129;BME280;10722;51.910;8.352;2023-03-18T02:58:11;100194.53;;;9.31;100.00
21129;BME280;10722;51.910;8.352;2023-03-18T03:00:56;100184.88;;;9.17;100.00
21129;BME280;10722;51.910;8.352;2023-03-18T03:03:41;100183.13;;;9.15;100.00
21129;BME280;10722;51.910;8.352;2023-03-18T03:06:27;100181.31;;;9.09;100.00
21129;BME280;10722;51.910;8.352;2023-03-18T03:09:15;100174.47;;;9.11;100.00
21129;BME280;10722;51.910;8.352;2023-03-18T03:12:00;100172.78;;;9.13;100.00
21129;BME280;10722;51.910;8.352;2023-03-18T03:14:45;100187.38;;;9.10;100.00
21129;BME280;10722;51.910;8.352;2023-03-18T03:17:30;100186.56;;;9.14;100.00
21129;BME280;10722;51.910;8.352;2023-03-18T03:20:15;100178.06;;;9.21;100.00
21129;BME280;10722;51.910;8.352;2023-03-18T03:23:02;100172.88;;;9.18;100.00
21129;BME280;10722;51.910;8.352;2023-03-18T03:25:48;100173.09;;;9.35;100.00
21129;BME280;10722;51.910;8.352;2023-03-18T03:28:33;100177.88;;;9.09;100.00
21129;BME280;10722;51.910;8.352;2023-03-18T03:31:18;100182.25;;;9.14;100.00
21129;BME280;10722;51.910;8.352;2023-03-18T03:34:04;100174.47;;;9.11;100.00
21129;BME280;10722;51.910;8.352;2023-03-18T03:36:49;100170.16;;;9.12;100.00
21129;BME280;10722;51.910;8.352;2023-03-18T03:39:34;100167.50;;;9.04;100.00
21129;BME280;10722;51.910;8.352;2023-03-18T03:42:20;100171.88;;;9.10;100.00
21129;BME280;10722;51.910;8.352;2023-03-18T03:45:06;100177.91;;;9.12;100.00
21129;BME280;10722;51.910;8.352;2023-03-18T03:47:52;100178.59;;;8.98;100.00
21129;BME280;10722;51.910;8.352;2023-03-18T03:50:38;100175.88;;;8.92;100.00
21129;BME280;10722;51.910;8.352;2023-03-18T03:53:25;100183.63;;;8.92;100.00
21129;BME280;10722;51.910;8.352;2023-03-18T03:56:10;100169.91;;;8.93;100.00
21129;BME280;10722;51.910;8.352;2023-03-18T03:58:55;100174.41;;;9.07;100.00
21129;BME280;10722;51.910;8.352;2023-03-18T04:01:40;100173.38;;;8.95;100.00
21129;BME280;10722;51.910;8.352;2023-03-18T04:04:26;100173.22;;;8.85;100.00
21129;BME280;10722;51.910;8.352;2023-03-18T04:07:12;100161.97;;;8.81;100.00
21129;BME280;10722;51.910;8.352;2023-03-18T04:09:57;100168.03;;;8.83;100.00
21129;BME280;10722;51.910;8.352;2023-03-18T04:12:43;100174.47;;;8.57;100.00
21129;BME280;10722;51.910;8.352;2023-03-18T04:15:28;100177.78;;;8.48;100.00
21129;BME280;10722;51.910;8.352;2023-03-18T04:18:14;100179.63;;;8.57;100.00
21129;BME280;10722;51.910;8.352;2023-03-18T04:20:59;100191.53;;;8.48;100.00
21129;BME280;10722;51.910;8.352;2023-03-18T04:23:44;100199.38;;;8.55;100.00
21129;BME280;10722;51.910;8.352;2023-03-18T04:26:30;100208.63;;;8.43;100.00
21129;BME280;10722;51.910;8.352;2023-03-18T04:29:15;100216.50;;;8.51;100.00
21129;BME280;10722;51.910;8.352;2023-03-18T04:32:00;100211.44;;;8.57;100.00
21129;BME280;10722;51.910;8.352;2023-03-18T04:34:45;100215.16;;;8.73;100.00
21129;BME280;10722;51.910;8.352;2023-03-18T04:37:31;100208.19;;;8.69;100.00
21129;BME280;10722;51.910;8.352;2023-03-18T04:40:16;100221.13;;;8.70;100.00
21129;BME280;10722;51.910;8.352;2023-03-18T04:43:01;100229.72;;;8.71;100.00
21129;BME280;10722;51.910;8.352;2023-03-18T04:45:46;100218.50;;;8.67;100.00
21129;BME280;10722;51.910;8.352;2023-03-18T04:48:31;100214.34;;;8.77;100.00
21129;BME280;10722;51.910;8.352;2023-03-18T04:51:17;100217.75;;;8.74;100.00
21129;BME280;10722;51.910;8.352;2023-03-18T04:54:03;100211.63;;;8.69;100.00
21129;BME280;10722;51.910;8.352;2023-03-18T04:56:48;100216.09;;;8.78;100.00
21129;BME280;10722;51.910;8.352;2023-03-18T04:59:33;100221.38;;;8.86;100.00
21129;BME280;10722;51.910;8.352;2023-03-18T05:02:19;100233.50;;;8.90;100.00
21129;BME280;10722;51.910;8.352;2023-03-18T05:05:04;100225.81;;;8.93;100.00
21129;BME280;10722;51.910;8.352;2023-03-18T05:07:49;100237.09;;;9.00;100.00
21129;BME280;10722;51.910;8.352;2023-03-18T05:10:35;100227.78;;;9.11;100.00
21129;BME280;10722;51.910;8.352;2023-03-18T05:13:21;100230.28;;;9.06;100.00
21129;BME280;10722;51.910;8.352;2023-03-18T05:16:06;100229.44;;;9.06;100.00
21129;BME280;10722;51.910;8.352;2023-03-18T05:18:51;100231.28;;;9.14;100.00
21129;BME280;10722;51.910;8.352;2023-03-18T05:21:37;100229.56;;;9.13;100.00
21129;BME280;10722;51.910;8.352;2023-03-18T05:24:22;100233.81;;;9.10;100.00
21129;BME280;10722;51.910;8.352;2023-03-18T05:27:08;100228.59;;;9.07;100.00
21129;BME280;10722;51.910;8.352;2023-03-18T05:29:54;100225.13;;;9.05;100.00
21129;BME280;10722;51.910;8.352;2023-03-18T05:32:41;100226.94;;;9.10;100.00
21129;BME280;10722;51.910;8.352;2023-03-18T05:35:26;100222.56;;;9.06;100.00
21129;BME280;10722;51.910;8.352;2023-03-18T05:38:11;100225.28;;;9.15;100.00
21129;BME280;10722;51.910;8.352;2023-03-18T05:40:56;100221.94;;;9.21;100.00
21129;BME280;10722;51.910;8.352;2023-03-18T05:43:42;100223.53;;;9.13;100.00
21129;BME280;10722;51.910;8.352;2023-03-18T05:46:27;100229.44;;;9.06;100.00
21129;BME280;10722;51.910;8.352;2023-03-18T05:49:12;100232.06;;;9.07;100.00
21129;BME280;10722;51.910;8.352;2023-03-18T05:51:57;100234.69;;;9.12;100.00
21129;BME280;10722;51.910;8.352;2023-03-18T05:54:42;100239.06;;;9.16;100.00
21129;BME280;10722;51.910;8.352;2023-03-18T05:57:27;100241.69;;;9.19;100.00
21129;BME280;10722;51.910;8.352;2023-03-18T06:00:13;100239.09;;;9.19;100.00
21129;BME280;10722;51.910;8.352;2023-03-18T06:02:59;100235.66;;;9.20;100.00
21129;BME280;10722;51.910;8.352;2023-03-18T06:05:45;100246.25;;;9.37;100.00
21129;BME280;10722;51.910;8.352;2023-03-18T06:08:30;100242.94;;;9.46;100.00
21129;BME280;10722;51.910;8.352;2023-03-18T06:11:15;100245.56;;;9.49;100.00
21129;BME280;10722;51.910;8.352;2023-03-18T06:14:02;100249.25;;;9.66;100.00
21129;BME280;10722;51.910;8.352;2023-03-18T06:16:47;100250.31;;;9.80;100.00
21129;BME280;10722;51.910;8.352;2023-03-18T06:19:33;100246.75;;;9.72;100.00
21129;BME280;10722;51.910;8.352;2023-03-18T06:22:18;100248.56;;;9.78;100.00
21129;BME280;10722;51.910;8.352;2023-03-18T06:25:04;100253.78;;;9.84;100.00
21129;BME280;10722;51.910;8.352;2023-03-18T06:27:50;100245.19;;;9.83;100.00
21129;BME280;10722;51.910;8.352;2023-03-18T06:30:35;100259.91;;;9.89;100.00
21129;BME280;10722;51.910;8.352;2023-03-18T06:33:22;100259.84;;;9.86;100.00
21129;BME280;10722;51.910;8.352;2023-03-18T06:36:08;100264.19;;;9.88;100.00
21129;BME280;10722;51.910;8.352;2023-03-18T06:38:54;100250.47;;;9.93;100.00
21129;BME280;10722;51.910;8.352;2023-03-18T06:41:39;100255.66;;;9.96;100.00
21129;BME280;10722;51.910;8.352;2023-03-18T06:44:24;100271.25;;;10.02;100.00
21129;BME280;10722;51.910;8.352;2023-03-18T06:47:09;100269.75;;;10.19;100.00
21129;BME280;10722;51.910;8.352;2023-03-18T06:49:55;100264.69;;;10.27;100.00
21129;BME280;10722;51.910;8.352;2023-03-18T06:52:40;100256.97;;;10.28;100.00
21129;BME280;10722;51.910;8.352;2023-03-18T06:55:26;100256.09;;;10.29;100.00
21129;BME280;10722;51.910;8.352;2023-03-18T06:58:11;100252.69;;;10.32;100.00
21129;BME280;10722;51.910;8.352;2023-03-18T07:00:57;100259.66;;;10.39;100.00
21129;BME280;10722;51.910;8.352;2023-03-18T07:03:42;100256.56;;;10.75;100.00
21129;BME280;10722;51.910;8.352;2023-03-18T07:06:28;100253.97;;;10.74;100.00
21129;BME280;10722;51.910;8.352;2023-03-18T07:09:13;100258.19;;;10.63;100.00
21129;BME280;10722;51.910;8.352;2023-03-18T07:11:59;100258.09;;;10.55;100.00
21129;BME280;10722;51.910;8.352;2023-03-18T07:14:44;100262.44;;;10.56;100.00
21129;BME280;10722;51.910;8.352;2023-03-18T07:17:29;100261.66;;;10.66;100.00
21129;BME280;10722;51.910;8.352;2023-03-18T07:20:15;100269.47;;;10.71;100.00
21129;BME280;10722;51.910;8.352;2023-03-18T07:23:01;100266.03;;;10.75;100.00
21129;BME280;10722;51.910;8.352;2023-03-18T07:25:46;100261.81;;;10.83;100.00
21129;BME280;10722;51.910;8.352;2023-03-18T07:28:31;100274.75;;;10.83;100.00
21129;BME280;10722;51.910;8.352;2023-03-18T07:31:16;100279.09;;;10.86;100.00
21129;BME280;10722;51.910;8.352;2023-03-18T07:34:01;100286.03;;;10.91;100.00
21129;BME280;10722;51.910;8.352;2023-03-18T07:36:46;100279.16;;;10.95;100.00
21129;BME280;10722;51.910;8.352;2023-03-18T07:39:31;100295.63;;;11.03;100.00
21129;BME280;10722;51.910;8.352;2023-03-18T07:42:16;100294.84;;;11.10;100.00
21129;BME280;10722;51.910;8.352;2023-03-18T07:45:02;100292.34;;;11.21;100.00
21129;BME280;10722;51.910;8.352;2023-03-18T07:47:47;100295.09;;;11.41;100.00
21129;BME280;10722;51.910;8.352;2023-03-18T07:50:33;100290.78;;;11.41;100.00
21129;BME280;10722;51.910;8.352;2023-03-18T07:53:18;100288.13;;;11.37;100.00
21129;BME280;10722;51.910;8.352;2023-03-18T07:56:04;100289.03;;;11.39;100.00
21129;BME280;10722;51.910;8.352;2023-03-18T07:58:49;100290.78;;;11.41;100.00
21129;BME280;10722;51.910;8.352;2023-03-18T08:01:34;100304.63;;;11.47;100.00
21129;BME280;10722;51.910;8.352;2023-03-18T08:04:19;100302.91;;;11.47;100.00
21129;BME280;10722;51.910;8.352;2023-03-18T08:07:05;100298.53;;;11.43;100.00
21129;BME280;10722;51.910;8.352;2023-03-18T08:09:50;100307.22;;;11.48;100.00
21129;BME280;10722;51.910;8.352;2023-03-18T08:12:35;100306.44;;;11.58;100.00
21129;BME280;10722;51.910;8.352;2023-03-18T08:15:36;100310.72;;;11.53;100.00
21129;BME280;10722;51.910;8.352;2023-03-18T08:18:21;100315.91;;;11.56;100.00
21129;BME280;10722;51.910;8.352;2023-03-18T08:21:07;100308.16;;;11.62;100.00
21129;BME280;10722;51.910;8.352;2023-03-18T08:23:52;100304.72;;;11.65;100.00
21129;BME280;10722;51.910;8.352;2023-03-18T08:26:37;100302.16;;;11.68;100.00
21129;BME280;10722;51.910;8.352;2023-03-18T08:29:22;100309.13;;;11.77;100.00
21129;BME280;10722;51.910;8.352;2023-03-18T08:32:08;100312.63;;;11.80;100.00
21129;BME280;10722;51.910;8.352;2023-03-18T08:34:54;100303.06;;;11.76;100.00
21129;BME280;10722;51.910;8.352;2023-03-18T08:37:39;100304.00;;;11.83;100.00
21129;BME280;10722;51.910;8.352;2023-03-18T08:40:24;100310.97;;;11.90;100.00
21129;BME280;10722;51.910;8.352;2023-03-18T08:43:09;100304.84;;;11.80;100.00
21129;BME280;10722;51.910;8.352;2023-03-18T08:45:55;100325.53;;;11.76;100.00
21129;BME280;10722;51.910;8.352;2023-03-18T08:48:40;100322.06;;;11.74;100.00
21129;BME280;10722;51.910;8.352;2023-03-18T08:51:26;100327.28;;;11.75;100.00
21129;BME280;10722;51.910;8.352;2023-03-18T08:54:12;100329.00;;;11.75;100.00
21129;BME280;10722;51.910;8.352;2023-03-18T08:56:57;100333.28;;;11.70;100.00
21129;BME280;10722;51.910;8.352;2023-03-18T08:59:42;100333.28;;;11.73;100.00
21129;BME280;10722;51.910;8.352;2023-03-18T09:02:27;100340.16;;;11.67;100.00
21129;BME280;10722;51.910;8.352;2023-03-18T09:05:12;100346.19;;;11.65;100.00
21129;BME280;10722;51.910;8.352;2023-03-18T09:07:57;100346.22;;;11.68;100.00
21129;BME280;10722;51.910;8.352;2023-03-18T09:10:46;100336.72;;;11.70;100.00
21129;BME280;10722;51.910;8.352;2023-03-18T09:13:32;100330.75;;;11.79;100.00
21129;BME280;10722;51.910;8.352;2023-03-18T09:16:17;100337.72;;;11.87;100.00
21129;BME280;10722;51.910;8.352;2023-03-18T09:19:02;100341.28;;;12.05;100.00
21129;BME280;10722;51.910;8.352;2023-03-18T09:21:48;100332.75;;;12.23;100.00
21129;BME280;10722;51.910;8.352;2023-03-18T09:24:33;100332.88;;;12.58;100.00
21129;BME280;10722;51.910;8.352;2023-03-18T09:27:18;100322.50;;;12.60;100.00
21129;BME280;10722;51.910;8.352;2023-03-18T09:30:04;100309.59;;;12.90;98.89
21129;BME280;10722;51.910;8.352;2023-03-18T09:32:50;100305.22;;;12.74;98.84
21129;BME280;10722;51.910;8.352;2023-03-18T09:35:37;100296.59;;;12.81;97.65
21129;BME280;10722;51.910;8.352;2023-03-18T09:38:22;100308.72;;;12.94;97.81
21129;BME280;10722;51.910;8.352;2023-03-18T09:47:22;100318.22;;;12.74;97.43
21129;BME280;10722;51.910;8.352;2023-03-18T09:53:18;100319.13;;;12.93;96.89
21129;BME280;10722;51.910;8.352;2023-03-18T09:56:05;100325.19;;;13.04;96.21
21129;BME280;10722;51.910;8.352;2023-03-18T10:01:51;100316.47;;;12.81;95.39
21129;BME280;10722;51.910;8.352;2023-03-18T10:04:42;100327.75;;;12.87;95.93
21129;BME280;10722;51.910;8.352;2023-03-18T10:07:33;100324.28;;;12.79;95.46
21129;BME280;10722;51.910;8.352;2023-03-18T10:10:31;100331.22;;;13.00;94.96
21129;BME280;10722;51.910;8.352;2023-03-18T10:16:18;100319.13;;;13.25;93.68
21129;BME280;10722;51.910;8.352;2023-03-18T10:19:06;100307.88;;;13.20;93.06
21129;BME280;10722;51.910;8.352;2023-03-18T10:34:05;100300.13;;;13.35;90.50
21129;BME280;10722;51.910;8.352;2023-03-18T10:40:23;100301.84;;;13.47;91.12
21129;BME280;10722;51.910;8.352;2023-03-18T10:43:17;100300.97;;;13.48;89.92
21129;BME280;10722;51.910;8.352;2023-03-18T10:46:04;100288.84;;;13.55;89.07
21129;BME280;10722;51.910;8.352;2023-03-18T10:48:57;100274.09;;;13.54;88.20
21129;BME280;10722;51.910;8.352;2023-03-18T10:51:56;100287.13;;;13.37;88.19
21129;BME280;10722;51.910;8.352;2023-03-18T10:54:44;100289.69;;;13.51;87.70
21129;BME280;10722;51.910;8.352;2023-03-18T10:57:29;100286.25;;;13.50;87.43
21129;BME280;10722;51.910;8.352;2023-03-18T11:00:32;100287.94;;;13.62;87.40
21129;BME280;10722;51.910;8.352;2023-03-18T11:03:41;100273.13;;;13.98;86.40
21129;BME280;10722;51.910;8.352;2023-03-18T11:06:51;100270.53;;;13.98;86.17
21129;BME280;10722;51.910;8.352;2023-03-18T11:09:39;100268.81;;;13.84;85.76
21129;BME280;10722;51.910;8.352;2023-03-18T11:12:28;100254.09;;;13.85;85.30
21129;BME280;10722;51.910;8.352;2023-03-18T11:15:18;100257.50;;;14.04;85.14
21129;BME280;10722;51.910;8.352;2023-03-18T11:18:04;100255.66;;;14.26;84.68
21129;BME280;10722;51.910;8.352;2023-03-18T11:20:57;100231.31;;;14.33;83.29
21129;BME280;10722;51.910;8.352;2023-03-18T11:23:56;100221.63;;;14.66;82.20
21129;BME280;10722;51.910;8.352;2023-03-18T11:30:08;100197.38;;;14.57;80.41
21129;BME280;10722;51.910;8.352;2023-03-18T11:33:02;100189.56;;;14.50;80.08
21129;BME280;10722;51.910;8.352;2023-03-18T11:38:38;100212.16;;;14.49;80.54
21129;BME280;10722;51.910;8.352;2023-03-18T11:41:25;100191.66;;;15.17;78.72
21129;BME280;10722;51.910;8.352;2023-03-18T11:44:16;100176.19;;;15.82;77.00
21129;BME280;10722;51.910;8.352;2023-03-18T11:47:17;100141.00;;;16.12;75.47
21129;BME280;10722;51.910;8.352;2023-03-18T11:50:08;100116.97;;;15.89;74.24
21129;BME280;10722;51.910;8.352;2023-03-18T11:56:00;100082.88;;;16.03;72.09
21129;BME280;10722;51.910;8.352;2023-03-18T11:59:02;100098.63;;;15.94;72.28
21129;BME280;10722;51.910;8.352;2023-03-18T12:07:47;100141.31;;;15.14;74.28
21129;BME280;10722;51.910;8.352;2023-03-18T12:10:39;100178.81;;;14.97;75.55
21129;BME280;10722;51.910;8.352;2023-03-18T12:13:51;100198.09;;;15.66;75.54
21129;BME280;10722;51.910;8.352;2023-03-18T12:17:12;100178.91;;;15.75;74.45
21129;BME280;10722;51.910;8.352;2023-03-18T12:20:11;100153.41;;;15.95;73.18
21129;BME280;10722;51.910;8.352;2023-03-18T12:23:10;100107.91;;;16.13;71.49
21129;BME280;10722;51.910;8.352;2023-03-18T12:26:11;100070.56;;;16.11;69.43
21129;BME280;10722;51.910;8.352;2023-03-18T12:43:44;100055.16;;;16.98;66.16
21129;BME280;10722;51.910;8.352;2023-03-18T12:50:34;100065.13;;;17.22;66.16
21129;BME280;10722;51.910;8.352;2023-03-18T12:52:59;100051.22;;;16.74;65.92
21129;BME280;10722;51.910;8.352;2023-03-18T12:55:53;100085.53;;;15.98;67.62
21129;BME280;10722;51.910;8.352;2023-03-18T12:58:44;100147.63;;;16.35;69.34
21129;BME280;10722;51.910;8.352;2023-03-18T13:02:00;100140.81;;;16.25;69.17
21129;BME280;10722;51.910;8.352;2023-03-18T13:04:53;100134.50;;;16.38;68.88
21129;BME280;10722;51.910;8.352;2023-03-18T13:07:45;100141.91;;;17.17;68.05
21129;BME280;10722;51.910;8.352;2023-03-18T13:10:33;100084.91;;;18.15;65.05
21129;BME280;10722;51.910;8.352;2023-03-18T13:13:21;100064.13;;;18.45;63.64
21129;BME280;10722;51.910;8.352;2023-03-18T13:16:07;100043.63;;;18.26;62.70
21129;BME280;10722;51.910;8.352;2023-03-18T13:18:55;100061.47;;;16.86;64.79
21129;BME280;10722;51.910;8.352;2023-03-18T13:21:44;100148.53;;;16.32;68.29
21129;BME280;10722;51.910;8.352;2023-03-18T13:24:54;100187.69;;;16.32;69.46
21129;BME280;10722;51.910;8.352;2023-03-18T13:42:38;100171.56;;;15.32;69.76
21129;BME280;10722;51.910;8.352;2023-03-18T13:45:32;100182.47;;;15.64;69.34
21129;BME280;10722;51.910;8.352;2023-03-18T13:48:29;100173.56;;;16.47;68.05
21129;BME280;10722;51.910;8.352;2023-03-18T13:51:28;100140.47;;;16.48;67.40
21129;BME280;10722;51.910;8.352;2023-03-18T13:54:33;100130.38;;;16.25;67.08
21129;BME280;10722;51.910;8.352;2023-03-18T14:00:37;100176.91;;;15.94;69.35
21129;BME280;10722;51.910;8.352;2023-03-18T14:03:26;100172.69;;;15.83;69.07
21129;BME280;10722;51.910;8.352;2023-03-18T14:06:37;100158.13;;;15.68;68.23
21129;BME280;10722;51.910;8.352;2023-03-18T14:15:35;100145.81;;;15.78;68.10
21129;BME280;10722;51.910;8.352;2023-03-18T14:18:23;100157.91;;;15.85;68.59
21129;BME280;10722;51.910;8.352;2023-03-18T14:21:23;100159.38;;;16.03;68.51
21129;BME280;10722;51.910;8.352;2023-03-18T14:24:12;100156.88;;;15.97;68.71
21129;BME280;10722;51.910;8.352;2023-03-18T14:29:44;100147.88;;;16.18;68.62
21129;BME280;10722;51.910;8.352;2023-03-18T14:35:27;100109.00;;;15.98;67.61
21129;BME280;10722;51.910;8.352;2023-03-18T14:38:21;100123.66;;;16.08;68.16
21129;BME280;10722;51.910;8.352;2023-03-18T14:41:27;100106.22;;;16.10;67.52
21129;BME280;10722;51.910;8.352;2023-03-18T14:47:24;100077.19;;;16.33;65.78
21129;BME280;10722;51.910;8.352;2023-03-18T14:53:16;100041.38;;;16.40;64.96
21129;BME280;10722;51.910;8.352;2023-03-18T14:56:04;100055.03;;;16.54;64.80
21129;BME280;10722;51.910;8.352;2023-03-18T14:58:54;100072.09;;;16.75;65.50
21129;BME280;10722;51.910;8.352;2023-03-18T15:01:40;100043.03;;;16.44;65.21
21129;BME280;10722;51.910;8.352;2023-03-18T15:04:29;100069.47;;;16.78;65.40
21129;BME280;10722;51.910;8.352;2023-03-18T15:07:14;100055.59;;;16.72;65.24
21129;BME280;10722;51.910;8.352;2023-03-18T15:10:02;100051.91;;;16.85;64.83
21129;BME280;10722;51.910;8.352;2023-03-18T15:15:45;100045.50;;;16.53;65.70
21129;BME280;10722;51.910;8.352;2023-03-18T15:18:33;100064.44;;;16.65;66.31
21129;BME280;10722;51.910;8.352;2023-03-18T15:21:22;100071.69;;;16.98;65.52
21129;BME280;10722;51.910;8.352;2023-03-18T15:24:11;100040.34;;;16.98;64.55
21129;BME280;10722;51.910;8.352;2023-03-18T15:27:12;100045.88;;;17.25;63.89
21129;BME280;10722;51.910;8.352;2023-03-18T15:30:02;100050.75;;;17.00;64.68
21129;BME280;10722;51.910;8.352;2023-03-18T15:32:47;100045.28;;;16.66;65.44
21129;BME280;10722;51.910;8.352;2023-03-18T15:35:34;100077.66;;;16.55;66.69
21129;BME280;10722;51.910;8.352;2023-03-18T15:38:25;100079.47;;;16.52;66.52
21129;BME280;10722;51.910;8.352;2023-03-18T15:41:10;100071.63;;;16.53;66.33
21129;BME280;10722;51.910;8.352;2023-03-18T15:43:56;100078.25;;;16.73;65.93
21129;BME280;10722;51.910;8.352;2023-03-18T15:46:45;100060.25;;;16.56;65.75
21129;BME280;10722;51.910;8.352;2023-03-18T15:49:30;100094.28;;;16.50;67.19
21129;BME280;10722;51.910;8.352;2023-03-18T15:52:15;100082.06;;;16.52;66.78
21129;BME280;10722;51.910;8.352;2023-03-18T15:55:01;100085.47;;;16.55;66.42
21129;BME280;10722;51.910;8.352;2023-03-18T15:57:47;100076.00;;;16.51;66.23
21129;BME280;10722;51.910;8.352;2023-03-18T16:00:33;100072.66;;;16.43;66.45
21129;BME280;10722;51.910;8.352;2023-03-18T16:03:24;100079.41;;;16.56;66.88
21129;BME280;10722;51.910;8.352;2023-03-18T16:06:09;100080.13;;;16.63;66.91
21129;BME280;10722;51.910;8.352;2023-03-18T16:08:54;100071.81;;;16.41;66.89
21129;BME280;10722;51.910;8.352;2023-03-18T16:11:40;100079.75;;;16.35;67.75
21129;BME280;10722;51.910;8.352;2023-03-18T16:14:40;100095.22;;;16.46;68.38
21129;BME280;10722;51.910;8.352;2023-03-18T16:17:26;100084.03;;;16.39;67.90
21129;BME280;10722;51.910;8.352;2023-03-18T16:20:15;100076.44;;;16.24;67.56
21129;BME280;10722;51.910;8.352;2023-03-18T16:23:01;100108.72;;;16.18;68.81
21129;BME280;10722;51.910;8.352;2023-03-18T16:25:50;100114.03;;;16.10;69.14